Walton Smith — WCZ6292 — position and weather

sailwx.info

Track history (hours):
 
Tides and Currents Weather Stations Pressure Air Temp Water Temp Dewpoint Dewpoint Depression Visibility Wind Speed Wind Dir Waves Ship Positions

Oceanographic research ship Walton Smith (USA)

Detailed information on ship capabilities available from University of Delaware's Ocean Information Center.

Owner: UNIVERSITY OF MIAMI, MIAMI, FL. More information available from US FCC via Universal Licensing System and Coast Guard Vessel Documentation Center.

Last reported at 2017-Dec-11 17:01 UTC. Time now 2017-Dec-13 03:41 UTC.
Position N 18°22' W 065°03'.

Length 29 m; draft 2 m.

MMSI: 367020910.

Date/timePositionNaut miles runAvg speedWind from/ knotsBaromVisibWave heightAir tempDewpointWater temp
2017-Dec-11 17:01N 18°22' W 065°03'0 0.0
2017-Dec-11 16:31N 18°22' W 065°03'0 0.0
2017-Dec-11 16:00N 18°22' W 065°03'0 0.0
2017-Dec-11 15:30N 18°22' W 065°03'0 0.0
2017-Dec-11 15:01N 18°22' W 065°03'0 0.0
2017-Dec-11 14:30N 18°22' W 065°03'0 0.0
2017-Dec-11 14:01N 18°22' W 065°03'0 0.0
2017-Dec-11 13:31N 18°22' W 065°03'0 0.0
2017-Dec-11 13:01N 18°22' W 065°03'0 0.0
2017-Dec-11 12:31N 18°22' W 065°03'3 5.6
2017-Dec-11 12:01N 18°20' W 065°01'2 3.5
2017-Dec-11 11:31N 18°20' W 064°59'0 0.0
2017-Dec-11 11:01N 18°20' W 064°59'0 0.0
2017-Dec-11 10:31N 18°20' W 064°59'0 0.0
2017-Dec-11 10:01N 18°20' W 064°59'0 0.0
2017-Dec-11 09:31N 18°20' W 064°59'0 0.0
2017-Dec-11 09:01N 18°20' W 064°59'0 0.0
2017-Dec-11 08:31N 18°20' W 064°59'0 0.0
2017-Dec-11 08:01N 18°20' W 064°59'0 0.0
2017-Dec-11 07:31N 18°20' W 064°59'0 0.0
2017-Dec-11 07:01N 18°20' W 064°59'0 0.0
2017-Dec-11 06:31N 18°20' W 064°59'0 0.0
2017-Dec-11 06:01N 18°20' W 064°59'0 0.1
2017-Dec-11 05:30N 18°20' W 064°59'0 0.1
2017-Dec-11 05:00N 18°20' W 064°59'0 0.0
2017-Dec-11 04:30N 18°20' W 064°59'0 0.0
2017-Dec-11 04:00N 18°20' W 064°59'0 0.0
2017-Dec-11 03:30N 18°20' W 064°59'0 0.0
2017-Dec-11 03:01N 18°20' W 064°59'0 0.0
2017-Dec-11 02:31N 18°20' W 064°59'0 0.2
2017-Dec-11 02:01N 18°20' W 064°59'0 0.1
2017-Dec-11 01:31N 18°20' W 064°59'0 0.0
2017-Dec-11 01:01N 18°20' W 064°59'0 0.0
2017-Dec-11 00:31N 18°20' W 064°59'0 0.0
2017-Dec-11 00:01N 18°20' W 064°59'0 0.0
2017-Dec-10 23:31N 18°20' W 064°59'0 0.0
2017-Dec-10 23:01N 18°20' W 064°59'0 0.0
2017-Dec-10 22:31N 18°20' W 064°59'0 0.0
2017-Dec-10 22:01N 18°20' W 064°59'2 3.4
2017-Dec-10 21:31N 18°20' W 065°01'3 6.0
2017-Dec-10 21:01N 18°22' W 065°03'4 8.4
2017-Dec-10 20:31N 18°23' W 064°59'3 6.6
2017-Dec-10 20:00N 18°22' W 064°56'0 0.0
2017-Dec-10 19:31N 18°22' W 064°56'0 0.0
2017-Dec-10 19:01N 18°22' W 064°56'0 0.0
2017-Dec-10 18:30N 18°22' W 064°56'0 0.0
2017-Dec-10 18:01N 18°22' W 064°56'0 0.0
2017-Dec-10 17:31N 18°22' W 064°56'0 0.0
2017-Dec-10 17:01N 18°22' W 064°56'0 0.0
2017-Dec-10 16:30N 18°22' W 064°56'0 0.0
2017-Dec-10 16:01N 18°22' W 064°56'0 0.0
2017-Dec-10 15:31N 18°22' W 064°56'0 0.0
2017-Dec-10 15:01N 18°22' W 064°56'0 0.0
2017-Dec-10 14:31N 18°22' W 064°56'0 0.0
2017-Dec-10 14:00N 18°22' W 064°56'0 0.0
2017-Dec-10 13:31N 18°22' W 064°56'0 0.0
2017-Dec-10 13:01N 18°22' W 064°56'0 0.1
2017-Dec-10 12:31N 18°22' W 064°56'3 6.3
2017-Dec-10 12:01N 18°23' W 064°59'4 7.5
2017-Dec-10 11:31N 18°23' W 065°02'2 4.8
2017-Dec-10 11:01N 18°20' W 065°02'3 5.5
2017-Dec-10 10:31N 18°20' W 064°59'0 0.0
2017-Dec-10 10:00N 18°20' W 064°59'0 0.0
2017-Dec-10 09:30N 18°20' W 064°59'0 0.0
2017-Dec-10 09:00N 18°20' W 064°59'0 0.0
2017-Dec-10 08:30N 18°20' W 064°59'0 0.0
2017-Dec-10 08:01N 18°20' W 064°59'0 0.0
2017-Dec-10 07:31N 18°20' W 064°59'0 0.0
2017-Dec-10 07:01N 18°20' W 064°59'0 0.0
2017-Dec-10 06:31N 18°20' W 064°59'0 0.0
2017-Dec-10 06:01N 18°20' W 064°59'0 0.0
2017-Dec-10 05:31N 18°20' W 064°59'0 0.0
2017-Dec-10 05:01N 18°20' W 064°59'0 0.0
2017-Dec-10 04:31N 18°20' W 064°59'0 0.0
2017-Dec-10 04:01N 18°20' W 064°59'0 0.0
2017-Dec-10 03:31N 18°20' W 064°59'0 0.0
2017-Dec-10 03:01N 18°20' W 064°59'0 0.0
2017-Dec-10 02:31N 18°20' W 064°59'0 0.0
2017-Dec-10 02:00N 18°20' W 064°59'0 0.0
2017-Dec-10 01:31N 18°20' W 064°59'0 0.0
2017-Dec-10 01:00N 18°20' W 064°59'0 0.0
2017-Dec-10 00:31N 18°20' W 064°59'0 0.0
2017-Dec-10 00:01N 18°20' W 064°59'0 0.0
2017-Dec-09 23:31N 18°20' W 064°59'0 0.0
2017-Dec-09 23:01N 18°20' W 064°59'0 0.1
2017-Dec-09 22:31N 18°20' W 064°59'3 5.4
2017-Dec-09 22:01N 18°18' W 064°57'4 7.3
2017-Dec-09 21:31N 18°17' W 064°54'0 0.1
2017-Dec-09 21:01N 18°17' W 064°54'0 0.0
2017-Dec-09 20:30N 18°17' W 064°54'0 0.0
2017-Dec-09 20:01N 18°17' W 064°54'0 0.0
2017-Dec-09 19:31N 18°17' W 064°54'0 0.0
2017-Dec-09 19:01N 18°17' W 064°54'0 0.0
2017-Dec-09 18:31N 18°17' W 064°54'0 0.0
2017-Dec-09 18:01N 18°17' W 064°54'0 0.0
2017-Dec-09 17:31N 18°17' W 064°54'0 0.0
2017-Dec-09 17:01N 18°17' W 064°54'0 0.0
2017-Dec-09 16:31N 18°17' W 064°54'0 0.1
2017-Dec-09 16:01N 18°17' W 064°54'2 4.3
2017-Dec-09 15:31N 18°17' W 064°56'4 7.3
2017-Dec-09 15:01N 18°20' W 064°59'1 1.7
2017-Dec-09 14:31N 18°20' W 064°59'0 0.0
2017-Dec-09 14:01N 18°20' W 064°59'0 0.0
2017-Dec-09 13:31N 18°20' W 064°59'0 0.0
2017-Dec-09 13:01N 18°20' W 064°59'0 0.0
2017-Dec-09 12:31N 18°20' W 064°59'0 0.0
2017-Dec-09 12:00N 18°20' W 064°59'0 0.0
2017-Dec-09 11:31N 18°20' W 064°59'0 0.0
2017-Dec-09 11:00N 18°20' W 064°59'0 0.0
2017-Dec-09 10:31N 18°20' W 064°59'0 0.0
2017-Dec-09 10:01N 18°20' W 064°59'0 0.0
2017-Dec-09 09:31N 18°20' W 064°59'0 0.0
2017-Dec-09 09:01N 18°20' W 064°59'0 0.0
2017-Dec-09 08:31N 18°20' W 064°59'0 0.0
2017-Dec-09 08:01N 18°20' W 064°59'0 0.0
2017-Dec-09 07:31N 18°20' W 064°59'0 0.0
2017-Dec-09 07:01N 18°20' W 064°59'0 0.0
2017-Dec-09 06:31N 18°20' W 064°59'0 0.0
2017-Dec-09 06:01N 18°20' W 064°59'0 0.0
2017-Dec-09 05:31N 18°20' W 064°59'0 0.0
2017-Dec-09 05:01N 18°20' W 064°59'0 0.0
2017-Dec-09 04:31N 18°20' W 064°59'0 0.0
2017-Dec-09 04:01N 18°20' W 064°59'0 0.0
2017-Dec-09 03:31N 18°20' W 064°59'0 0.0
2017-Dec-09 03:00N 18°20' W 064°59'0 0.0
2017-Dec-09 02:31N 18°20' W 064°59'0 0.0
2017-Dec-09 02:01N 18°20' W 064°59'0 0.0
2017-Dec-09 01:31N 18°20' W 064°59'0 0.0
2017-Dec-09 01:01N 18°20' W 064°59'0 0.0
2017-Dec-09 00:31N 18°20' W 064°59'0 0.0
2017-Dec-09 00:01N 18°20' W 064°59'0 0.0
2017-Dec-08 23:30N 18°20' W 064°59'0 0.0
2017-Dec-08 23:01N 18°20' W 064°59'0 0.0
2017-Dec-08 22:31N 18°20' W 064°59'0 0.0
2017-Dec-08 22:01N 18°20' W 064°59'0 0.0
2017-Dec-08 21:31N 18°20' W 064°59'0 0.0
2017-Dec-08 21:01N 18°20' W 064°59'0 0.0
2017-Dec-08 20:31N 18°20' W 064°59'0 0.0
2017-Dec-08 20:01N 18°20' W 064°59'0 0.0
2017-Dec-08 19:31N 18°20' W 064°59'0 0.0
2017-Dec-08 19:01N 18°20' W 064°59'0 0.0
2017-Dec-08 18:31N 18°20' W 064°59'0 0.0
2017-Dec-08 18:01N 18°20' W 064°59'0 0.0
2017-Dec-08 17:31N 18°20' W 064°59'0 0.0
2017-Dec-08 17:01N 18°20' W 064°59'0 0.0
2017-Dec-08 16:31N 18°20' W 064°59'0 0.0
2017-Dec-08 16:00N 18°20' W 064°59'0 0.0
2017-Dec-08 15:31N 18°20' W 064°59'0 0.0
2017-Dec-08 15:00N 18°20' W 064°59'0 0.0
2017-Dec-08 14:31N 18°20' W 064°59'0 0.0
2017-Dec-08 14:01N 18°20' W 064°59'0 0.0
2017-Dec-07 02:14N 18°20' W 064°59'0 0.0
2017-Dec-07 02:01N 18°20' W 064°59'0 0.0
2017-Dec-07 01:31N 18°20' W 064°59'0 0.0
2017-Dec-07 01:01N 18°20' W 064°59'0 0.0
2017-Dec-07 00:31N 18°20' W 064°59'0 0.0
2017-Dec-07 00:01N 18°20' W 064°59'0 0.0
2017-Dec-06 23:31N 18°20' W 064°59'0 0.0
2017-Dec-06 23:01N 18°20' W 064°59'0 0.0
2017-Dec-06 22:31N 18°20' W 064°59'0 0.0
2017-Dec-06 22:01N 18°20' W 064°59'0 0.0
2017-Dec-06 21:30N 18°20' W 064°59'0 0.0
2017-Dec-06 21:01N 18°20' W 064°59'  
2017-Dec-04 10:31N 18°20' W 064°59'0 0.0
2017-Dec-04 10:01N 18°20' W 064°59'0 0.0
2017-Dec-04 09:31N 18°20' W 064°59'0 0.0
2017-Dec-04 09:00N 18°20' W 064°59'0 0.0
2017-Dec-04 08:31N 18°20' W 064°59'0 0.0
2017-Dec-04 08:01N 18°20' W 064°59'0 0.0
2017-Dec-04 07:30N 18°20' W 064°59'0 0.0
2017-Dec-04 07:00N 18°20' W 064°59'0 0.0
2017-Dec-04 06:31N 18°20' W 064°59'0 0.0
2017-Dec-04 06:01N 18°20' W 064°59'0 0.0
2017-Dec-04 05:31N 18°20' W 064°59'0 0.0
2017-Dec-04 05:01N 18°20' W 064°59'0 0.0
2017-Dec-04 04:31N 18°20' W 064°59'0 0.0
2017-Dec-04 04:01N 18°20' W 064°59'0 0.0
2017-Dec-04 03:31N 18°20' W 064°59'0 0.0
2017-Dec-04 03:01N 18°20' W 064°59'0 0.0
2017-Dec-04 02:31N 18°20' W 064°59'0 0.0
2017-Dec-04 02:01N 18°20' W 064°59'0 0.0
2017-Dec-04 01:31N 18°20' W 064°59'0 0.0
2017-Dec-04 01:01N 18°20' W 064°59'0 0.0
2017-Dec-04 00:31N 18°20' W 064°59'0 0.0
2017-Dec-04 00:01N 18°20' W 064°59'0 0.0
2017-Dec-03 23:30N 18°20' W 064°59'0 0.0
2017-Dec-03 23:01N 18°20' W 064°59'0 0.0
2017-Dec-03 22:31N 18°20' W 064°59'0 0.0
2017-Dec-03 22:01N 18°20' W 064°59'0 0.0
2017-Dec-03 21:31N 18°20' W 064°59'0 0.0
2017-Dec-03 21:01N 18°20' W 064°59'0 0.0
2017-Dec-03 20:31N 18°20' W 064°59'0 0.0
2017-Dec-03 20:01N 18°20' W 064°59'0 0.0
2017-Dec-03 19:31N 18°20' W 064°59'0 1.0
2017-Dec-03 19:01N 18°20' W 064°59'4 8.2
2017-Dec-03 18:31N 18°18' W 064°56'4 8.0
2017-Dec-03 18:01N 18°18' W 064°51'0 0.9
2017-Dec-03 17:31N 18°19' W 064°51'0 0.0
2017-Dec-03 17:01N 18°19' W 064°51'0 0.0
2017-Dec-03 16:31N 18°19' W 064°51'0 0.0
2017-Dec-03 16:01N 18°19' W 064°51'0 0.0
2017-Dec-03 15:31N 18°19' W 064°51'0 0.0
2017-Dec-03 15:00N 18°19' W 064°51'0 0.0
2017-Dec-03 14:31N 18°19' W 064°51'0 0.0
2017-Dec-03 14:01N 18°19' W 064°51'0 0.0
2017-Dec-03 13:30N 18°19' W 064°51'0 0.0
2017-Dec-03 13:01N 18°19' W 064°51'0 0.0
2017-Dec-03 12:31N 18°19' W 064°51'0 0.0
2017-Dec-03 12:01N 18°19' W 064°51'0 0.0
2017-Dec-03 11:31N 18°19' W 064°51'0 0.0
2017-Dec-03 11:01N 18°19' W 064°51'0 0.0
2017-Dec-03 10:31N 18°19' W 064°51'0 0.0
2017-Dec-03 10:01N 18°19' W 064°51'0 0.0
2017-Dec-03 09:31N 18°19' W 064°51'0 0.0
2017-Dec-03 09:01N 18°19' W 064°51'0 0.0
2017-Dec-03 08:31N 18°19' W 064°51'0 0.0
2017-Dec-03 08:01N 18°19' W 064°51'0 0.0
2017-Dec-03 07:31N 18°19' W 064°51'0 0.0
2017-Dec-03 07:01N 18°19' W 064°51'0 0.0
2017-Dec-03 06:31N 18°19' W 064°51'0 0.0
2017-Dec-03 06:01N 18°19' W 064°51'0 0.0
2017-Dec-03 05:31N 18°19' W 064°51'0 0.0
2017-Dec-03 05:01N 18°19' W 064°51'0 0.0
2017-Dec-03 04:31N 18°19' W 064°51'0 0.0
2017-Dec-03 04:01N 18°19' W 064°51'0 0.0
2017-Dec-03 03:31N 18°19' W 064°51'0 0.0
2017-Dec-03 03:01N 18°19' W 064°51'0 0.0
2017-Dec-03 02:31N 18°19' W 064°51'0 0.0
2017-Dec-03 02:01N 18°19' W 064°51'0 0.0
2017-Dec-03 01:31N 18°19' W 064°51'0 0.0
2017-Dec-03 01:01N 18°19' W 064°51'0 0.0
2017-Dec-03 00:31N 18°19' W 064°51'0 0.0
2017-Dec-03 00:01N 18°19' W 064°51'0 0.0
2017-Dec-02 23:31N 18°19' W 064°51'0 0.0
2017-Dec-02 23:01N 18°19' W 064°51'0 0.0
2017-Dec-02 22:31N 18°19' W 064°51'0 0.0
2017-Dec-02 22:01N 18°19' W 064°51'0 0.0
2017-Dec-02 21:31N 18°19' W 064°51'0 0.0
2017-Dec-02 21:01N 18°19' W 064°51'0 0.0
2017-Dec-02 20:31N 18°19' W 064°51'0 0.0
2017-Dec-02 20:01N 18°19' W 064°51'0 0.0
2017-Dec-02 19:31N 18°19' W 064°51'0 0.0
2017-Dec-02 19:01N 18°19' W 064°51'0 0.0
2017-Dec-02 18:31N 18°19' W 064°51'0 0.0
2017-Dec-02 18:01N 18°19' W 064°51'0 0.0
2017-Dec-02 17:30N 18°19' W 064°51'0 0.0
2017-Dec-02 17:01N 18°19' W 064°51'0 0.0
2017-Dec-02 16:31N 18°19' W 064°51'0 0.0
2017-Dec-02 16:01N 18°19' W 064°51'0 0.0
2017-Dec-02 15:31N 18°19' W 064°51'0 0.6
2017-Dec-02 15:00N 18°18' W 064°51'3 5.4
2017-Dec-02 14:31N 18°18' W 064°54'3 5.5
2017-Dec-02 14:00N 18°20' W 064°55'0 0.0
2017-Dec-02 13:31N 18°20' W 064°55'0 0.0
2017-Dec-02 13:00N 18°20' W 064°55'0 0.0
2017-Dec-02 12:31N 18°20' W 064°55'0 0.0
2017-Dec-02 12:01N 18°20' W 064°55'0 0.0
2017-Dec-02 11:31N 18°20' W 064°55'0 0.0
2017-Dec-02 11:01N 18°20' W 064°55'0 0.0
2017-Dec-02 10:30N 18°20' W 064°55'0 0.0
2017-Dec-02 10:01N 18°20' W 064°55'0 0.0
2017-Dec-02 09:31N 18°20' W 064°55'0 0.0
2017-Dec-02 09:01N 18°20' W 064°55'0 0.0
2017-Dec-02 08:31N 18°20' W 064°55'0 0.0
2017-Dec-02 08:01N 18°20' W 064°55'0 0.0
2017-Dec-02 07:31N 18°20' W 064°55'0 0.0
2017-Dec-02 07:01N 18°20' W 064°55'0 0.0
2017-Dec-02 06:31N 18°20' W 064°55'0 0.0
2017-Dec-02 06:01N 18°20' W 064°55'0 0.0
2017-Dec-02 05:31N 18°20' W 064°55'0 0.0
2017-Dec-02 05:01N 18°20' W 064°55'0 0.0
2017-Dec-02 04:31N 18°20' W 064°55'0 0.0
2017-Dec-02 04:01N 18°20' W 064°55'0 0.0
2017-Dec-02 03:31N 18°20' W 064°55'0 0.0
2017-Dec-02 03:00N 18°20' W 064°55'0 0.0
2017-Dec-02 02:31N 18°20' W 064°55'0 0.0
2017-Dec-02 02:01N 18°20' W 064°55'0 0.0
2017-Dec-02 01:31N 18°20' W 064°55'0 0.0
2017-Dec-02 01:01N 18°20' W 064°55'0 0.0
2017-Dec-02 00:30N 18°20' W 064°55'0 0.0
2017-Dec-02 00:01N 18°20' W 064°55'0 0.0
2017-Dec-01 23:30N 18°20' W 064°55'0 0.0
2017-Dec-01 23:01N 18°20' W 064°55'0 0.0
2017-Dec-01 22:31N 18°20' W 064°55'0 0.0
2017-Dec-01 22:01N 18°20' W 064°55'0 0.0
2017-Dec-01 21:31N 18°20' W 064°55'0 0.0
2017-Dec-01 21:01N 18°20' W 064°55'0 0.0
2017-Dec-01 20:30N 18°20' W 064°55'0 0.0
2017-Dec-01 20:01N 18°20' W 064°55'0 0.0
2017-Dec-01 19:31N 18°20' W 064°55'1 1.1
2017-Dec-01 19:01N 18°20' W 064°56'4 8.5
2017-Dec-01 18:31N 18°16' W 064°55'4 8.5
2017-Dec-01 18:01N 18°12' W 064°53'3 6.6
2017-Dec-01 17:31N 18°10' W 064°50'4 8.7
2017-Dec-01 17:01N 18°13' W 064°47'  
Track history (hours):
 
Tides and Currents Weather Stations Pressure Air Temp Water Temp Dewpoint Dewpoint Depression Visibility Wind Speed Wind Dir Waves Ship Positions

Oceanographic research ship Walton Smith (USA)

Detailed information on ship capabilities available from University of Delaware's Ocean Information Center.

Owner: UNIVERSITY OF MIAMI, MIAMI, FL. More information available from US FCC via Universal Licensing System and Coast Guard Vessel Documentation Center.

Last reported at 2017-Dec-11 17:01 UTC. Time now 2017-Dec-13 03:41 UTC.
Position N 18°22' W 065°03'.

Length 29 m; draft 2 m.

MMSI: 367020910.

Date/timePositionNaut miles runAvg speedWind from/ knotsBaromVisibWave heightAir tempDewpointWater temp
2017-Dec-11 17:01N 18°22' W 065°03'0 0.0
2017-Dec-11 16:31N 18°22' W 065°03'0 0.0
2017-Dec-11 16:00N 18°22' W 065°03'0 0.0
2017-Dec-11 15:30N 18°22' W 065°03'0 0.0
2017-Dec-11 15:01N 18°22' W 065°03'0 0.0
2017-Dec-11 14:30N 18°22' W 065°03'0 0.0
2017-Dec-11 14:01N 18°22' W 065°03'0 0.0
2017-Dec-11 13:31N 18°22' W 065°03'0 0.0
2017-Dec-11 13:01N 18°22' W 065°03'0 0.0
2017-Dec-11 12:31N 18°22' W 065°03'3 5.6
2017-Dec-11 12:01N 18°20' W 065°01'2 3.5
2017-Dec-11 11:31N 18°20' W 064°59'0 0.0
2017-Dec-11 11:01N 18°20' W 064°59'0 0.0
2017-Dec-11 10:31N 18°20' W 064°59'0 0.0
2017-Dec-11 10:01N 18°20' W 064°59'0 0.0
2017-Dec-11 09:31N 18°20' W 064°59'0 0.0
2017-Dec-11 09:01N 18°20' W 064°59'0 0.0
2017-Dec-11 08:31N 18°20' W 064°59'0 0.0
2017-Dec-11 08:01N 18°20' W 064°59'0 0.0
2017-Dec-11 07:31N 18°20' W 064°59'0 0.0
2017-Dec-11 07:01N 18°20' W 064°59'0 0.0
2017-Dec-11 06:31N 18°20' W 064°59'0 0.0
2017-Dec-11 06:01N 18°20' W 064°59'0 0.1
2017-Dec-11 05:30N 18°20' W 064°59'0 0.1
2017-Dec-11 05:00N 18°20' W 064°59'0 0.0
2017-Dec-11 04:30N 18°20' W 064°59'0 0.0
2017-Dec-11 04:00N 18°20' W 064°59'0 0.0
2017-Dec-11 03:30N 18°20' W 064°59'0 0.0
2017-Dec-11 03:01N 18°20' W 064°59'0 0.0
2017-Dec-11 02:31N 18°20' W 064°59'0 0.2
2017-Dec-11 02:01N 18°20' W 064°59'0 0.1
2017-Dec-11 01:31N 18°20' W 064°59'0 0.0
2017-Dec-11 01:01N 18°20' W 064°59'0 0.0
2017-Dec-11 00:31N 18°20' W 064°59'0 0.0
2017-Dec-11 00:01N 18°20' W 064°59'0 0.0
2017-Dec-10 23:31N 18°20' W 064°59'0 0.0
2017-Dec-10 23:01N 18°20' W 064°59'0 0.0
2017-Dec-10 22:31N 18°20' W 064°59'0 0.0
2017-Dec-10 22:01N 18°20' W 064°59'2 3.4
2017-Dec-10 21:31N 18°20' W 065°01'3 6.0
2017-Dec-10 21:01N 18°22' W 065°03'4 8.4
2017-Dec-10 20:31N 18°23' W 064°59'3 6.6
2017-Dec-10 20:00N 18°22' W 064°56'0 0.0
2017-Dec-10 19:31N 18°22' W 064°56'0 0.0
2017-Dec-10 19:01N 18°22' W 064°56'0 0.0
2017-Dec-10 18:30N 18°22' W 064°56'0 0.0
2017-Dec-10 18:01N 18°22' W 064°56'0 0.0
2017-Dec-10 17:31N 18°22' W 064°56'0 0.0
2017-Dec-10 17:01N 18°22' W 064°56'0 0.0
2017-Dec-10 16:30N 18°22' W 064°56'0 0.0
2017-Dec-10 16:01N 18°22' W 064°56'0 0.0
2017-Dec-10 15:31N 18°22' W 064°56'0 0.0
2017-Dec-10 15:01N 18°22' W 064°56'0 0.0
2017-Dec-10 14:31N 18°22' W 064°56'0 0.0
2017-Dec-10 14:00N 18°22' W 064°56'0 0.0
2017-Dec-10 13:31N 18°22' W 064°56'0 0.0
2017-Dec-10 13:01N 18°22' W 064°56'0 0.1
2017-Dec-10 12:31N 18°22' W 064°56'3 6.3
2017-Dec-10 12:01N 18°23' W 064°59'4 7.5
2017-Dec-10 11:31N 18°23' W 065°02'2 4.8
2017-Dec-10 11:01N 18°20' W 065°02'3 5.5
2017-Dec-10 10:31N 18°20' W 064°59'0 0.0
2017-Dec-10 10:00N 18°20' W 064°59'0 0.0
2017-Dec-10 09:30N 18°20' W 064°59'0 0.0
2017-Dec-10 09:00N 18°20' W 064°59'0 0.0
2017-Dec-10 08:30N 18°20' W 064°59'0 0.0
2017-Dec-10 08:01N 18°20' W 064°59'0 0.0
2017-Dec-10 07:31N 18°20' W 064°59'0 0.0
2017-Dec-10 07:01N 18°20' W 064°59'0 0.0
2017-Dec-10 06:31N 18°20' W 064°59'0 0.0
2017-Dec-10 06:01N 18°20' W 064°59'0 0.0
2017-Dec-10 05:31N 18°20' W 064°59'0 0.0
2017-Dec-10 05:01N 18°20' W 064°59'0 0.0
2017-Dec-10 04:31N 18°20' W 064°59'0 0.0
2017-Dec-10 04:01N 18°20' W 064°59'0 0.0
2017-Dec-10 03:31N 18°20' W 064°59'0 0.0
2017-Dec-10 03:01N 18°20' W 064°59'0 0.0
2017-Dec-10 02:31N 18°20' W 064°59'0 0.0
2017-Dec-10 02:00N 18°20' W 064°59'0 0.0
2017-Dec-10 01:31N 18°20' W 064°59'0 0.0
2017-Dec-10 01:00N 18°20' W 064°59'0 0.0
2017-Dec-10 00:31N 18°20' W 064°59'0 0.0
2017-Dec-10 00:01N 18°20' W 064°59'0 0.0
2017-Dec-09 23:31N 18°20' W 064°59'0 0.0
2017-Dec-09 23:01N 18°20' W 064°59'0 0.1
2017-Dec-09 22:31N 18°20' W 064°59'3 5.4
2017-Dec-09 22:01N 18°18' W 064°57'4 7.3
2017-Dec-09 21:31N 18°17' W 064°54'0 0.1
2017-Dec-09 21:01N 18°17' W 064°54'0 0.0
2017-Dec-09 20:30N 18°17' W 064°54'0 0.0
2017-Dec-09 20:01N 18°17' W 064°54'0 0.0
2017-Dec-09 19:31N 18°17' W 064°54'0 0.0
2017-Dec-09 19:01N 18°17' W 064°54'0 0.0
2017-Dec-09 18:31N 18°17' W 064°54'0 0.0
2017-Dec-09 18:01N 18°17' W 064°54'0 0.0
2017-Dec-09 17:31N 18°17' W 064°54'0 0.0
2017-Dec-09 17:01N 18°17' W 064°54'0 0.0
2017-Dec-09 16:31N 18°17' W 064°54'0 0.1
2017-Dec-09 16:01N 18°17' W 064°54'2 4.3
2017-Dec-09 15:31N 18°17' W 064°56'4 7.3
2017-Dec-09 15:01N 18°20' W 064°59'1 1.7
2017-Dec-09 14:31N 18°20' W 064°59'0 0.0
2017-Dec-09 14:01N 18°20' W 064°59'0 0.0
2017-Dec-09 13:31N 18°20' W 064°59'0 0.0
2017-Dec-09 13:01N 18°20' W 064°59'0 0.0
2017-Dec-09 12:31N 18°20' W 064°59'0 0.0
2017-Dec-09 12:00N 18°20' W 064°59'0 0.0
2017-Dec-09 11:31N 18°20' W 064°59'0 0.0
2017-Dec-09 11:00N 18°20' W 064°59'0 0.0
2017-Dec-09 10:31N 18°20' W 064°59'0 0.0
2017-Dec-09 10:01N 18°20' W 064°59'0 0.0
2017-Dec-09 09:31N 18°20' W 064°59'0 0.0
2017-Dec-09 09:01N 18°20' W 064°59'0 0.0
2017-Dec-09 08:31N 18°20' W 064°59'0 0.0
2017-Dec-09 08:01N 18°20' W 064°59'0 0.0
2017-Dec-09 07:31N 18°20' W 064°59'0 0.0
2017-Dec-09 07:01N 18°20' W 064°59'0 0.0
2017-Dec-09 06:31N 18°20' W 064°59'0 0.0
2017-Dec-09 06:01N 18°20' W 064°59'0 0.0
2017-Dec-09 05:31N 18°20' W 064°59'0 0.0
2017-Dec-09 05:01N 18°20' W 064°59'0 0.0
2017-Dec-09 04:31N 18°20' W 064°59'0 0.0
2017-Dec-09 04:01N 18°20' W 064°59'0 0.0
2017-Dec-09 03:31N 18°20' W 064°59'0 0.0
2017-Dec-09 03:00N 18°20' W 064°59'0 0.0
2017-Dec-09 02:31N 18°20' W 064°59'0 0.0
2017-Dec-09 02:01N 18°20' W 064°59'0 0.0
2017-Dec-09 01:31N 18°20' W 064°59'0 0.0
2017-Dec-09 01:01N 18°20' W 064°59'0 0.0
2017-Dec-09 00:31N 18°20' W 064°59'0 0.0
2017-Dec-09 00:01N 18°20' W 064°59'0 0.0
2017-Dec-08 23:30N 18°20' W 064°59'0 0.0
2017-Dec-08 23:01N 18°20' W 064°59'0 0.0
2017-Dec-08 22:31N 18°20' W 064°59'0 0.0
2017-Dec-08 22:01N 18°20' W 064°59'0 0.0
2017-Dec-08 21:31N 18°20' W 064°59'0 0.0
2017-Dec-08 21:01N 18°20' W 064°59'0 0.0
2017-Dec-08 20:31N 18°20' W 064°59'0 0.0
2017-Dec-08 20:01N 18°20' W 064°59'0 0.0
2017-Dec-08 19:31N 18°20' W 064°59'0 0.0
2017-Dec-08 19:01N 18°20' W 064°59'0 0.0
2017-Dec-08 18:31N 18°20' W 064°59'0 0.0
2017-Dec-08 18:01N 18°20' W 064°59'0 0.0
2017-Dec-08 17:31N 18°20' W 064°59'0 0.0
2017-Dec-08 17:01N 18°20' W 064°59'0 0.0
2017-Dec-08 16:31N 18°20' W 064°59'0 0.0
2017-Dec-08 16:00N 18°20' W 064°59'0 0.0
2017-Dec-08 15:31N 18°20' W 064°59'0 0.0
2017-Dec-08 15:00N 18°20' W 064°59'0 0.0
2017-Dec-08 14:31N 18°20' W 064°59'0 0.0
2017-Dec-08 14:01N 18°20' W 064°59'0 0.0
2017-Dec-07 02:14N 18°20' W 064°59'0 0.0
2017-Dec-07 02:01N 18°20' W 064°59'0 0.0
2017-Dec-07 01:31N 18°20' W 064°59'0 0.0
2017-Dec-07 01:01N 18°20' W 064°59'0 0.0
2017-Dec-07 00:31N 18°20' W 064°59'0 0.0
2017-Dec-07 00:01N 18°20' W 064°59'0 0.0
2017-Dec-06 23:31N 18°20' W 064°59'0 0.0
2017-Dec-06 23:01N 18°20' W 064°59'0 0.0
2017-Dec-06 22:31N 18°20' W 064°59'0 0.0
2017-Dec-06 22:01N 18°20' W 064°59'0 0.0
2017-Dec-06 21:30N 18°20' W 064°59'0 0.0
2017-Dec-06 21:01N 18°20' W 064°59'  
2017-Dec-04 10:31N 18°20' W 064°59'0 0.0
2017-Dec-04 10:01N 18°20' W 064°59'0 0.0
2017-Dec-04 09:31N 18°20' W 064°59'0 0.0
2017-Dec-04 09:00N 18°20' W 064°59'0 0.0
2017-Dec-04 08:31N 18°20' W 064°59'0 0.0
2017-Dec-04 08:01N 18°20' W 064°59'0 0.0
2017-Dec-04 07:30N 18°20' W 064°59'0 0.0
2017-Dec-04 07:00N 18°20' W 064°59'0 0.0
2017-Dec-04 06:31N 18°20' W 064°59'0 0.0
2017-Dec-04 06:01N 18°20' W 064°59'0 0.0
2017-Dec-04 05:31N 18°20' W 064°59'0 0.0
2017-Dec-04 05:01N 18°20' W 064°59'0 0.0
2017-Dec-04 04:31N 18°20' W 064°59'0 0.0
2017-Dec-04 04:01N 18°20' W 064°59'0 0.0
2017-Dec-04 03:31N 18°20' W 064°59'0 0.0
2017-Dec-04 03:01N 18°20' W 064°59'0 0.0
2017-Dec-04 02:31N 18°20' W 064°59'0 0.0
2017-Dec-04 02:01N 18°20' W 064°59'0 0.0
2017-Dec-04 01:31N 18°20' W 064°59'0 0.0
2017-Dec-04 01:01N 18°20' W 064°59'0 0.0
2017-Dec-04 00:31N 18°20' W 064°59'0 0.0
2017-Dec-04 00:01N 18°20' W 064°59'0 0.0
2017-Dec-03 23:30N 18°20' W 064°59'0 0.0
2017-Dec-03 23:01N 18°20' W 064°59'0 0.0
2017-Dec-03 22:31N 18°20' W 064°59'0 0.0
2017-Dec-03 22:01N 18°20' W 064°59'0 0.0
2017-Dec-03 21:31N 18°20' W 064°59'0 0.0
2017-Dec-03 21:01N 18°20' W 064°59'0 0.0
2017-Dec-03 20:31N 18°20' W 064°59'0 0.0
2017-Dec-03 20:01N 18°20' W 064°59'0 0.0
2017-Dec-03 19:31N 18°20' W 064°59'0 1.0
2017-Dec-03 19:01N 18°20' W 064°59'4 8.2
2017-Dec-03 18:31N 18°18' W 064°56'4 8.0
2017-Dec-03 18:01N 18°18' W 064°51'0 0.9
2017-Dec-03 17:31N 18°19' W 064°51'0 0.0
2017-Dec-03 17:01N 18°19' W 064°51'0 0.0
2017-Dec-03 16:31N 18°19' W 064°51'0 0.0
2017-Dec-03 16:01N 18°19' W 064°51'0 0.0
2017-Dec-03 15:31N 18°19' W 064°51'0 0.0
2017-Dec-03 15:00N 18°19' W 064°51'0 0.0
2017-Dec-03 14:31N 18°19' W 064°51'0 0.0
2017-Dec-03 14:01N 18°19' W 064°51'0 0.0
2017-Dec-03 13:30N 18°19' W 064°51'0 0.0
2017-Dec-03 13:01N 18°19' W 064°51'0 0.0
2017-Dec-03 12:31N 18°19' W 064°51'0 0.0
2017-Dec-03 12:01N 18°19' W 064°51'0 0.0
2017-Dec-03 11:31N 18°19' W 064°51'0 0.0
2017-Dec-03 11:01N 18°19' W 064°51'0 0.0
2017-Dec-03 10:31N 18°19' W 064°51'0 0.0
2017-Dec-03 10:01N 18°19' W 064°51'0 0.0
2017-Dec-03 09:31N 18°19' W 064°51'0 0.0
2017-Dec-03 09:01N 18°19' W 064°51'0 0.0
2017-Dec-03 08:31N 18°19' W 064°51'0 0.0
2017-Dec-03 08:01N 18°19' W 064°51'0 0.0
2017-Dec-03 07:31N 18°19' W 064°51'0 0.0
2017-Dec-03 07:01N 18°19' W 064°51'0 0.0
2017-Dec-03 06:31N 18°19' W 064°51'0 0.0
2017-Dec-03 06:01N 18°19' W 064°51'0 0.0
2017-Dec-03 05:31N 18°19' W 064°51'0 0.0
2017-Dec-03 05:01N 18°19' W 064°51'0 0.0
2017-Dec-03 04:31N 18°19' W 064°51'0 0.0
2017-Dec-03 04:01N 18°19' W 064°51'0 0.0
2017-Dec-03 03:31N 18°19' W 064°51'0 0.0
2017-Dec-03 03:01N 18°19' W 064°51'0 0.0
2017-Dec-03 02:31N 18°19' W 064°51'0 0.0
2017-Dec-03 02:01N 18°19' W 064°51'0 0.0
2017-Dec-03 01:31N 18°19' W 064°51'0 0.0
2017-Dec-03 01:01N 18°19' W 064°51'0 0.0
2017-Dec-03 00:31N 18°19' W 064°51'0 0.0
2017-Dec-03 00:01N 18°19' W 064°51'0 0.0
2017-Dec-02 23:31N 18°19' W 064°51'0 0.0
2017-Dec-02 23:01N 18°19' W 064°51'0 0.0
2017-Dec-02 22:31N 18°19' W 064°51'0 0.0
2017-Dec-02 22:01N 18°19' W 064°51'0 0.0
2017-Dec-02 21:31N 18°19' W 064°51'0 0.0
2017-Dec-02 21:01N 18°19' W 064°51'0 0.0
2017-Dec-02 20:31N 18°19' W 064°51'0 0.0
2017-Dec-02 20:01N 18°19' W 064°51'0 0.0
2017-Dec-02 19:31N 18°19' W 064°51'0 0.0
2017-Dec-02 19:01N 18°19' W 064°51'0 0.0
2017-Dec-02 18:31N 18°19' W 064°51'0 0.0
2017-Dec-02 18:01N 18°19' W 064°51'0 0.0
2017-Dec-02 17:30N 18°19' W 064°51'0 0.0
2017-Dec-02 17:01N 18°19' W 064°51'0 0.0
2017-Dec-02 16:31N 18°19' W 064°51'0 0.0
2017-Dec-02 16:01N 18°19' W 064°51'0 0.0
2017-Dec-02 15:31N 18°19' W 064°51'0 0.6
2017-Dec-02 15:00N 18°18' W 064°51'3 5.4
2017-Dec-02 14:31N 18°18' W 064°54'3 5.5
2017-Dec-02 14:00N 18°20' W 064°55'0 0.0
2017-Dec-02 13:31N 18°20' W 064°55'0 0.0
2017-Dec-02 13:00N 18°20' W 064°55'0 0.0
2017-Dec-02 12:31N 18°20' W 064°55'0 0.0
2017-Dec-02 12:01N 18°20' W 064°55'0 0.0
2017-Dec-02 11:31N 18°20' W 064°55'0 0.0
2017-Dec-02 11:01N 18°20' W 064°55'0 0.0
2017-Dec-02 10:30N 18°20' W 064°55'0 0.0
2017-Dec-02 10:01N 18°20' W 064°55'0 0.0
2017-Dec-02 09:31N 18°20' W 064°55'0 0.0
2017-Dec-02 09:01N 18°20' W 064°55'0 0.0
2017-Dec-02 08:31N 18°20' W 064°55'0 0.0
2017-Dec-02 08:01N 18°20' W 064°55'0 0.0
2017-Dec-02 07:31N 18°20' W 064°55'0 0.0
2017-Dec-02 07:01N 18°20' W 064°55'0 0.0
2017-Dec-02 06:31N 18°20' W 064°55'0 0.0
2017-Dec-02 06:01N 18°20' W 064°55'0 0.0
2017-Dec-02 05:31N 18°20' W 064°55'0 0.0
2017-Dec-02 05:01N 18°20' W 064°55'0 0.0
2017-Dec-02 04:31N 18°20' W 064°55'0 0.0
2017-Dec-02 04:01N 18°20' W 064°55'0 0.0
2017-Dec-02 03:31N 18°20' W 064°55'0 0.0
2017-Dec-02 03:00N 18°20' W 064°55'0 0.0
2017-Dec-02 02:31N 18°20' W 064°55'0 0.0
2017-Dec-02 02:01N 18°20' W 064°55'0 0.0
2017-Dec-02 01:31N 18°20' W 064°55'0 0.0
2017-Dec-02 01:01N 18°20' W 064°55'0 0.0
2017-Dec-02 00:30N 18°20' W 064°55'0 0.0
2017-Dec-02 00:01N 18°20' W 064°55'0 0.0
2017-Dec-01 23:30N 18°20' W 064°55'0 0.0
2017-Dec-01 23:01N 18°20' W 064°55'0 0.0
2017-Dec-01 22:31N 18°20' W 064°55'0 0.0
2017-Dec-01 22:01N 18°20' W 064°55'0 0.0
2017-Dec-01 21:31N 18°20' W 064°55'0 0.0
2017-Dec-01 21:01N 18°20' W 064°55'0 0.0
2017-Dec-01 20:30N 18°20' W 064°55'0 0.0
2017-Dec-01 20:01N 18°20' W 064°55'0 0.0
2017-Dec-01 19:31N 18°20' W 064°55'1 1.1
2017-Dec-01 19:01N 18°20' W 064°56'4 8.5
2017-Dec-01 18:31N 18°16' W 064°55'4 8.5
2017-Dec-01 18:01N 18°12' W 064°53'3 6.6
2017-Dec-01 17:31N 18°10' W 064°50'4 8.7
2017-Dec-01 17:01N 18°13' W 064°47'  

Dump ship's entire track history